Time;durP1;ratioP1;P1;durP2;ratioP2;P2;SDS_P1;SDS_P2;PMS_P1;PMS_P2;Temp;Humidity;BMP_temperature;BMP_pressure;BME280_temperature;BME280_humidity;BME280_pressure;Samples;Min_cycle;Max_cycle;Signal;HPM_P1;HPM_P2
2024/01/20 00:01:54;;;;;;;5.10;3.35;;;;;;;0.14;76.29;94886.88;5089560;28;20060;-86
2024/01/20 00:04:20;;;;;;;5.78;3.90;;;;;;;0.83;76.77;95005.00;5090220;28;20040;-87
2024/01/20 00:06:45;;;;;;;7.25;3.45;;;;;;;1.10;75.72;95074.19;5072638;28;20132;-86
2024/01/20 00:09:11;;;;;;;4.65;3.13;;;;;;;0.72;75.12;95028.19;5074768;28;20036;-86
2024/01/20 00:11:40;;;;;;;4.15;2.60;;;;;;;0.31;75.26;94978.38;5089500;28;20033;-86
2024/01/20 00:14:05;;;;;;;5.30;3.17;;;;;;;1.12;75.14;95080.00;5071967;28;20070;-86
2024/01/20 00:16:31;;;;;;;4.97;3.17;;;;;;;0.65;74.18;95056.16;5072096;28;20047;-87
2024/01/20 00:18:57;;;;;;;4.82;2.97;;;;;;;0.83;74.33;95055.41;5090855;28;20032;-86
2024/01/20 00:21:23;;;;;;;4.35;3.28;;;;;;;-0.14;74.25;94908.19;5082714;28;20053;-87
2024/01/20 00:23:49;;;;;;;4.22;3.10;;;;;;;0.81;73.98;95067.88;5061329;28;20062;-86
2024/01/20 00:26:16;;;;;;;3.45;2.90;;;;;;;1.02;73.53;95093.56;5076999;28;20493;-86
2024/01/20 00:28:41;;;;;;;4.40;2.67;;;;;;;0.15;73.27;94968.53;5071165;28;20049;-86
2024/01/20 00:31:07;;;;;;;4.10;2.85;;;;;;;0.69;72.67;95054.72;5070930;28;20207;-87
2024/01/20 00:33:32;;;;;;;5.72;2.70;;;;;;;0.04;72.94;94927.50;5088707;28;20028;-87
2024/01/20 00:35:58;;;;;;;3.08;2.30;;;;;;;0.64;72.72;95031.06;5071614;28;20045;-86
2024/01/20 00:38:25;;;;;;;3.45;2.25;;;;;;;0.47;72.69;95024.00;5074024;28;20048;-87
2024/01/20 00:40:51;;;;;;;3.65;2.85;;;;;;;-0.45;73.22;94877.75;5070747;28;20029;-86
2024/01/20 00:43:16;;;;;;;3.05;2.47;;;;;;;0.92;73.31;95118.56;5071421;28;20402;-86
2024/01/20 00:45:42;;;;;;;4.25;2.50;;;;;;;-0.08;72.60;94943.81;5089681;28;20044;-86
2024/01/20 00:48:07;;;;;;;4.93;2.67;;;;;;;0.94;73.11;95169.56;5078868;28;20151;-86
2024/01/20 00:50:33;;;;;;;5.07;2.53;;;;;;;0.69;73.58;95083.41;5071504;28;20056;-86
2024/01/20 00:52:58;;;;;;;3.90;2.85;;;;;;;-0.03;73.14;94979.69;5089648;28;20052;-87
2024/01/20 00:55:24;;;;;;;5.85;2.90;;;;;;;0.78;73.78;95110.06;5086752;28;20041;-87
2024/01/20 00:57:49;;;;;;;3.08;2.35;;;;;;;-0.70;73.57;94868.34;5071172;28;20075;-86
2024/01/20 01:00:15;;;;;;;4.90;2.72;;;;;;;-0.44;73.28;94908.00;5080055;28;20033;-86
2024/01/20 01:02:41;;;;;;;4.82;2.53;;;;;;;1.03;73.70;95150.00;5085365;28;20044;-86
2024/01/20 01:05:07;;;;;;;3.83;2.47;;;;;;;0.54;73.11;95095.19;5088224;28;20144;-83
2024/01/20 01:07:34;;;;;;;3.30;2.80;;;;;;;0.78;73.32;95133.53;5073911;28;20037;-82
2024/01/20 01:09:59;;;;;;;3.13;2.33;;;;;;;0.82;73.16;95136.53;5074259;28;20044;-85
2024/01/20 01:12:25;;;;;;;3.35;2.45;;;;;;;0.13;73.17;95033.13;5057081;28;20044;-82
2024/01/20 01:14:51;;;;;;;5.68;2.35;;;;;;;0.17;74.30;95058.56;5056737;28;20128;-83
2024/01/20 01:17:16;;;;;;;3.65;2.42;;;;;;;0.97;74.48;95163.94;5060121;28;20154;-84
2024/01/20 01:19:43;;;;;;;3.22;2.60;;;;;;;-0.23;74.34;95000.66;5073131;28;20033;-83
2024/01/20 01:22:08;;;;;;;2.65;2.40;;;;;;;0.92;74.52;95183.84;5075060;28;20043;-83
2024/01/20 01:24:34;;;;;;;3.35;2.20;;;;;;;0.65;74.70;95157.94;5068527;28;20041;-82
2024/01/20 01:27:00;;;;;;;4.75;2.80;;;;;;;-0.32;75.84;95038.44;5068629;28;20046;-82
2024/01/20 01:29:25;;;;;;;2.58;2.10;;;;;;;0.63;76.11;95175.63;5050888;28;20040;-83
2024/01/20 01:31:51;;;;;;;3.22;2.55;;;;;;;-0.16;75.79;95086.66;5054702;28;20078;-82
2024/01/20 01:34:16;;;;;;;3.45;2.60;;;;;;;0.57;77.17;95167.84;5073058;28;20041;-82
2024/01/20 01:36:42;;;;;;;4.55;2.53;;;;;;;-0.33;76.13;95081.13;5054977;28;20044;-83
2024/01/20 01:39:08;;;;;;;3.42;2.28;;;;;;;0.45;78.19;95179.97;5054360;28;20531;-83
2024/01/20 01:41:34;;;;;;;4.40;2.63;;;;;;;-1.27;77.78;94903.91;5071318;28;20123;-83
2024/01/20 01:44:01;;;;;;;3.35;2.55;;;;;;;-0.87;78.89;95008.63;5072554;28;20071;-83
2024/01/20 01:46:26;;;;;;;4.40;2.88;;;;;;;-1.05;79.48;94953.84;5065739;28;20044;-83
2024/01/20 01:48:52;;;;;;;4.55;2.75;;;;;;;-0.48;79.96;95054.53;5051237;28;20041;-83
2024/01/20 01:51:18;;;;;;;5.10;3.00;;;;;;;0.00;79.93;95127.88;5036441;28;20194;-82
2024/01/20 01:53:44;;;;;;;5.03;3.30;;;;;;;-0.45;81.52;95057.53;5061439;28;20040;-82
2024/01/20 01:56:11;;;;;;;5.93;2.72;;;;;;;0.19;82.10;95180.91;5049914;28;20098;-83
2024/01/20 01:58:37;;;;;;;3.83;3.13;;;;;;;-1.43;82.52;94899.94;5050631;28;20045;-82
2024/01/20 02:01:02;;;;;;;4.35;3.22;;;;;;;-0.22;83.51;95122.16;5056870;28;20067;-82
2024/01/20 02:03:28;;;;;;;5.22;3.30;;;;;;;-0.68;84.06;95046.00;5037299;28;20048;-82
2024/01/20 02:05:53;;;;;;;3.85;2.85;;;;;;;-1.09;84.40;95007.31;5072220;28;20036;-84
2024/01/20 02:08:24;;;;;;;4.68;3.13;;;;;;;-1.06;85.51;95012.09;5053818;28;20041;-84
2024/01/20 02:10:50;;;;;;;4.63;3.13;;;;;;;-0.19;86.10;95136.59;5058885;28;20041;-88
2024/01/20 02:13:16;;;;;;;5.03;3.65;;;;;;;-0.06;86.07;95181.63;5060793;28;20043;-87
2024/01/20 02:15:42;;;;;;;4.30;3.35;;;;;;;-0.68;86.46;95098.88;5059729;28;20057;-87
2024/01/20 02:18:07;;;;;;;4.10;2.85;;;;;;;-0.61;86.36;95127.53;5078107;28;20033;-87
2024/01/20 02:20:34;;;;;;;4.25;3.28;;;;;;;-0.21;87.16;95162.06;5064301;28;20441;-88
2024/01/20 02:22:59;;;;;;;5.38;3.40;;;;;;;-1.23;87.22;95017.78;5049134;28;20048;-87
2024/01/20 02:25:25;;;;;;;4.03;3.38;;;;;;;-1.01;86.03;95103.41;5061742;28;20075;-86
2024/01/20 02:27:50;;;;;;;6.45;3.85;;;;;;;-0.91;86.67;95093.34;5068905;28;20045;-87
2024/01/20 02:30:16;;;;;;;4.97;3.15;;;;;;;-0.56;86.64;95138.13;5088028;28;20043;-86
2024/01/20 02:32:42;;;;;;;4.57;3.38;;;;;;;-1.10;86.56;95079.41;5070382;28;20037;-86
2024/01/20 02:35:09;;;;;;;7.50;4.30;;;;;;;-0.42;87.47;95178.78;5068760;28;20043;-86
2024/01/20 02:37:35;;;;;;;5.72;3.30;;;;;;;-0.30;87.35;95187.53;5068372;28;20123;-88
2024/01/20 02:40:00;;;;;;;4.07;2.78;;;;;;;-0.37;85.44;95205.00;5063757;28;20203;-87
2024/01/20 02:42:26;;;;;;;6.40;3.42;;;;;;;-3.29;85.67;94741.22;5083259;28;20028;-88
2024/01/20 02:44:51;;;;;;;5.22;2.72;;;;;;;-0.90;86.30;95141.81;5066010;28;20075;-88
2024/01/20 02:47:18;;;;;;;3.58;3.03;;;;;;;-0.98;86.56;95155.84;5065218;28;20041;-88
2024/01/20 02:49:43;;;;;;;4.57;2.85;;;;;;;-0.60;86.03;95234.09;5064918;28;20036;-88
2024/01/20 02:52:09;;;;;;;4.55;3.05;;;;;;;-0.71;85.92;95210.50;5073362;28;20047;-87
2024/01/20 02:54:35;;;;;;;4.63;3.00;;;;;;;-0.89;84.62;95198.91;5084441;28;20033;-88
2024/01/20 02:57:00;;;;;;;3.38;2.33;;;;;;;-0.84;84.70;95191.28;5079103;28;20033;-86
2024/01/20 02:59:26;;;;;;;5.03;3.00;;;;;;;-0.76;84.49;95236.34;5095568;28;20097;-86
2024/01/20 03:01:51;;;;;;;5.10;2.60;;;;;;;-0.83;84.60;95224.13;5070832;28;20051;-87
2024/01/20 03:04:17;;;;;;;3.83;2.53;;;;;;;-0.60;84.72;95254.94;5088650;28;20423;-86
2024/01/20 03:06:43;;;;;;;4.60;2.90;;;;;;;-0.73;85.06;95249.75;5068960;28;20093;-86
2024/01/20 03:09:08;;;;;;;2.95;2.20;;;;;;;-0.69;83.91;95252.78;5082610;28;20024;-85
2024/01/20 03:11:38;;;;;;;3.53;2.30;;;;;;;-1.78;84.04;95075.44;5071702;28;20075;-86
2024/01/20 03:14:03;;;;;;;4.40;2.97;;;;;;;-0.73;83.48;95248.94;5067792;28;20048;-86
2024/01/20 03:16:28;;;;;;;6.72;2.50;;;;;;;-2.08;84.09;95065.44;5094094;28;20138;-85
2024/01/20 03:18:54;;;;;;;2.20;2.00;;;;;;;-1.08;84.92;95235.34;5097395;28;20032;-86
2024/01/20 03:21:19;;;;;;;3.75;2.60;;;;;;;-1.10;84.62;95239.94;5096875;28;20075;-85
2024/01/20 03:23:45;;;;;;;4.70;2.75;;;;;;;-1.75;84.58;95147.81;5074700;28;20037;-86
2024/01/20 03:26:11;;;;;;;5.18;2.50;;;;;;;-1.01;85.43;95312.44;5063757;28;20124;-81
2024/01/20 03:28:40;;;;;;;4.43;2.20;;;;;;;-1.54;86.25;95279.50;5071869;28;20112;-82
2024/01/20 03:31:06;;;;;;;6.43;2.50;;;;;;;-2.85;87.67;95016.50;5058624;28;20067;-83
2024/01/20 03:33:32;;;;;;;4.22;2.55;;;;;;;-1.12;88.22;95289.59;5067931;28;20117;-87
2024/01/20 03:35:57;;;;;;;3.65;2.22;;;;;;;-1.14;87.49;95288.97;5071348;28;20040;-88
2024/01/20 03:38:23;;;;;;;3.15;2.67;;;;;;;-2.47;87.89;95112.88;5078261;28;20149;-86
2024/01/20 03:40:48;;;;;;;6.05;2.55;;;;;;;-1.16;88.22;95340.44;5064930;28;20496;-87
2024/01/20 03:43:14;;;;;;;4.35;2.63;;;;;;;-1.38;88.93;95289.56;5081814;28;20051;-88
2024/01/20 03:45:41;;;;;;;4.40;2.83;;;;;;;-1.18;89.23;95329.44;5062614;28;20050;-88
2024/01/20 03:48:07;;;;;;;2.55;2.00;;;;;;;-1.39;88.83;95299.16;5063755;28;20048;-88
2024/01/20 03:50:32;;;;;;;3.85;2.65;;;;;;;-1.76;89.69;95219.84;5069040;28;20054;-86
2024/01/20 03:52:58;;;;;;;4.43;2.40;;;;;;;-1.65;89.44;95245.25;5081117;28;20058;-86
2024/01/20 03:55:23;;;;;;;4.25;2.65;;;;;;;-1.27;90.44;95307.19;5071690;28;20044;-86
2024/01/20 03:57:49;;;;;;;6.00;2.33;;;;;;;-2.41;89.23;95148.47;5072019;28;20071;-86
2024/01/20 04:00:15;;;;;;;2.03;1.83;;;;;;;-1.39;89.95;95303.56;5086471;28;20063;-86
2024/01/20 04:02:40;;;;;;;3.33;1.98;;;;;;;-2.26;91.04;95182.09;5089449;28;20051;-85
2024/01/20 04:05:06;;;;;;;3.30;2.20;;;;;;;-1.73;91.91;95276.63;5087026;28;20036;-88
2024/01/20 04:07:32;;;;;;;2.38;1.90;;;;;;;-1.26;91.89;95351.22;5079604;28;20029;-88
2024/01/20 04:09:57;;;;;;;3.88;2.25;;;;;;;-1.61;91.88;95288.09;5079030;28;20035;-88
2024/01/20 04:12:24;;;;;;;2.97;2.22;;;;;;;-2.07;91.53;95243.72;5061861;28;20051;-88
2024/01/20 04:14:49;;;;;;;3.50;2.30;;;;;;;-1.98;91.24;95267.72;5056897;28;20061;-88
2024/01/20 04:17:15;;;;;;;5.45;2.53;;;;;;;-1.30;91.93;95364.84;5069955;28;20512;-88
2024/01/20 04:19:41;;;;;;;4.72;2.35;;;;;;;-1.45;92.33;95346.75;5057264;28;20037;-88
2024/01/20 04:22:06;;;;;;;3.60;2.53;;;;;;;-1.79;92.20;95300.03;5077566;28;20033;-88
2024/01/20 04:24:32;;;;;;;4.75;3.10;;;;;;;-1.54;92.01;95358.34;5080096;28;20040;-87
2024/01/20 04:26:57;;;;;;;4.80;2.20;;;;;;;-1.85;92.81;95308.59;5080796;28;20104;-87
2024/01/20 04:29:23;;;;;;;2.83;1.85;;;;;;;-1.81;91.59;95321.00;5057514;28;20045;-87
2024/01/20 04:31:48;;;;;;;6.85;2.38;;;;;;;-1.72;92.02;95369.25;5076107;28;20048;-88
2024/01/20 04:34:14;;;;;;;5.72;2.35;;;;;;;-2.10;93.01;95297.88;5080874;28;20123;-88
2024/01/20 04:36:39;;;;;;;2.58;1.73;;;;;;;-1.65;92.83;95374.47;5076808;28;20040;-82
2024/01/20 04:39:05;;;;;;;5.63;2.22;;;;;;;-1.87;92.88;95352.16;5049546;28;20150;-83
2024/01/20 04:41:31;;;;;;;3.33;2.20;;;;;;;-2.80;92.68;95206.19;5056063;28;20052;-82
2024/01/20 04:43:56;;;;;;;3.55;2.50;;;;;;;-2.54;92.51;95254.06;5074241;28;20041;-83
2024/01/20 04:46:21;;;;;;;5.53;3.13;;;;;;;-2.92;92.60;95196.53;5074518;28;20059;-83
2024/01/20 04:48:47;;;;;;;3.35;2.30;;;;;;;-1.92;93.32;95359.75;5053040;28;20079;-82
2024/01/20 04:51:13;;;;;;;5.13;3.17;;;;;;;-1.83;93.08;95354.19;5057264;28;20063;-82
2024/01/20 04:53:38;;;;;;;4.78;2.80;;;;;;;-1.68;92.53;95386.06;5074037;28;20103;-84
2024/01/20 04:56:05;;;;;;;3.72;2.45;;;;;;;-1.49;92.97;95420.16;5050759;28;20033;-85
2024/01/20 04:58:31;;;;;;;5.22;2.20;;;;;;;-1.76;92.61;95349.03;5077844;28;20172;-86
2024/01/20 05:00:57;;;;;;;3.30;2.20;;;;;;;-2.10;92.26;95318.66;5084323;28;20036;-86
2024/01/20 05:03:22;;;;;;;3.80;2.28;;;;;;;-1.70;92.65;95359.47;5081618;28;20123;-86
2024/01/20 05:05:48;;;;;;;3.15;2.40;;;;;;;-2.05;92.67;95313.69;5069873;28;20036;-87
2024/01/20 05:08:13;;;;;;;4.05;2.38;;;;;;;-1.65;92.39;95377.88;5075182;28;20044;-86
2024/01/20 05:10:39;;;;;;;7.07;3.05;;;;;;;-2.12;92.20;95305.84;5065129;28;20053;-86
2024/01/20 05:13:05;;;;;;;6.32;2.60;;;;;;;-1.60;92.08;95401.50;5119630;22;20069;-81
2024/01/20 05:15:31;;;;;;;5.65;2.53;;;;;;;-1.51;92.26;95428.16;5084593;28;20086;-81
2024/01/20 05:17:57;;;;;;;5.60;3.15;;;;;;;-2.07;92.71;95345.09;5072955;28;20480;-81
2024/01/20 05:20:22;;;;;;;4.45;2.55;;;;;;;-2.16;93.03;95330.63;5086330;28;20048;-81
2024/01/20 05:22:48;;;;;;;9.18;3.08;;;;;;;-2.89;92.84;95189.13;5078032;28;20051;-81
2024/01/20 05:25:14;;;;;;;6.25;3.05;;;;;;;-1.86;91.54;95372.78;5092239;28;20044;-84
2024/01/20 05:27:40;;;;;;;6.40;2.83;;;;;;;-1.85;92.30;95377.00;5073128;28;20154;-84
2024/01/20 05:30:07;;;;;;;4.13;2.75;;;;;;;-1.90;92.19;95394.13;5091181;28;20044;-84
2024/01/20 05:32:32;;;;;;;7.82;2.88;;;;;;;-1.78;92.63;95388.22;5072482;28;20106;-84
2024/01/20 05:34:58;;;;;;;4.35;2.95;;;;;;;-1.60;91.97;95422.31;5078933;28;20040;-84
2024/01/20 05:37:23;;;;;;;5.68;3.38;;;;;;;-1.65;92.00;95449.91;5079330;28;20054;-83
2024/01/20 05:39:53;;;;;;;12.40;3.50;;;;;;;-1.70;92.61;95447.88;5073619;28;20461;-84
2024/01/20 05:42:18;;;;;;;4.57;2.92;;;;;;;-1.70;92.99;95445.28;5090779;28;20044;-83
2024/01/20 05:44:44;;;;;;;7.93;3.47;;;;;;;-1.71;93.13;95440.25;5072669;28;20098;-83
2024/01/20 05:47:09;;;;;;;7.13;3.33;;;;;;;-1.77;92.13;95460.03;5072854;28;20086;-83
2024/01/20 05:49:35;;;;;;;6.43;3.75;;;;;;;-2.29;92.04;95390.31;5072653;28;20036;-83
2024/01/20 05:52:01;;;;;;;6.38;3.10;;;;;;;-1.83;92.85;95460.78;5090422;28;20055;-83
2024/01/20 05:54:27;;;;;;;6.18;3.47;;;;;;;-2.48;93.07;95367.56;5090614;28;20036;-83
2024/01/20 05:56:52;;;;;;;5.13;2.97;;;;;;;-2.88;92.99;95319.69;5091386;28;20078;-83
2024/01/20 05:59:18;;;;;;;8.00;3.65;;;;;;;-2.42;92.52;95390.19;5071611;28;20044;-83
2024/01/20 06:01:50;;;;;;;4.97;3.08;;;;;;;-1.91;93.68;95445.34;5071767;28;20055;-83
2024/01/20 06:04:19;;;;;;;5.13;2.88;;;;;;;-2.36;92.70;95386.81;5073149;28;20039;-82
2024/01/20 06:06:48;;;;;;;5.45;3.28;;;;;;;-2.30;93.36;95393.09;5076623;28;20036;-82
2024/01/20 06:09:14;;;;;;;11.25;3.30;;;;;;;-2.39;93.34;95388.03;5097416;28;20046;-82
2024/01/20 06:11:41;;;;;;;7.97;3.45;;;;;;;-1.79;93.57;95456.00;5096537;28;20044;-82
2024/01/20 06:14:06;;;;;;;10.32;3.15;;;;;;;-2.31;92.74;95400.06;5077967;28;20056;-82
2024/01/20 06:16:33;;;;;;;6.10;3.00;;;;;;;-2.21;92.74;95407.56;5079305;28;20046;-82
2024/01/20 06:19:00;;;;;;;9.32;3.58;;;;;;;-1.86;92.13;95481.16;5063287;28;20041;-82
2024/01/20 06:21:25;;;;;;;6.07;3.42;;;;;;;-2.27;92.76;95419.47;5077094;28;20047;-82
2024/01/20 06:23:51;;;;;;;4.10;2.92;;;;;;;-2.19;91.80;95473.09;5096708;28;20040;-83
2024/01/20 06:26:17;;;;;;;4.90;2.67;;;;;;;-2.13;92.38;95467.13;5086329;28;20610;-82
2024/01/20 06:28:43;;;;;;;8.02;3.15;;;;;;;-2.23;92.93;95467.47;5072162;28;20163;-83
2024/01/20 06:31:09;;;;;;;6.15;3.38;;;;;;;-2.04;92.19;95492.81;5074900;28;20044;-83
2024/01/20 06:33:37;;;;;;;3.50;2.70;;;;;;;-2.78;92.47;95385.91;5075406;28;20060;-81
2024/01/20 06:36:03;;;;;;;10.45;3.50;;;;;;;-2.36;93.70;95441.38;5076665;28;20109;-82
2024/01/20 06:38:29;;;;;;;6.63;3.17;;;;;;;-2.02;94.04;95495.22;5080395;28;20543;-82
2024/01/20 06:40:54;;;;;;;4.80;2.63;;;;;;;-2.18;93.83;95480.72;5106709;28;20115;-82
2024/01/20 06:43:20;;;;;;;5.68;3.22;;;;;;;-2.27;93.40;95460.22;5095879;28;20032;-82
2024/01/20 06:45:46;;;;;;;6.30;3.38;;;;;;;-2.27;93.19;95468.03;5103734;28;20044;-82
2024/01/20 06:48:12;;;;;;;5.20;3.45;;;;;;;-2.33;92.30;95467.78;5097516;28;20120;-82
2024/01/20 06:50:43;;;;;;;5.97;2.35;;;;;;;-2.02;92.23;95513.44;5076733;28;20040;-82
2024/01/20 06:53:12;;;;;;;8.85;3.55;;;;;;;-2.56;92.63;95437.81;5095269;28;20040;-82
2024/01/20 06:55:38;;;;;;;12.60;3.90;;;;;;;-2.08;92.93;95491.59;5077977;28;20130;-82
2024/01/20 06:58:03;;;;;;;4.95;2.90;;;;;;;-2.27;92.79;95445.44;5074075;28;20090;-82
2024/01/20 07:00:29;;;;;;;5.53;3.15;;;;;;;-1.80;92.78;95496.81;5075033;28;20040;-81
2024/01/20 07:02:55;;;;;;;13.90;3.53;;;;;;;-1.95;91.93;95476.09;5082050;28;20146;-82
2024/01/20 07:05:21;;;;;;;5.40;2.97;;;;;;;-1.73;90.81;95517.66;5077628;28;20040;-82
2024/01/20 07:07:46;;;;;;;7.18;3.10;;;;;;;-2.29;90.12;95459.63;5075140;28;20375;-82
2024/01/20 07:10:13;;;;;;;6.68;3.40;;;;;;;-1.88;90.46;95503.94;5090870;28;20039;-82
2024/01/20 07:12:39;;;;;;;4.97;2.72;;;;;;;-1.83;89.76;95546.56;5074143;28;20135;-82
2024/01/20 07:15:05;;;;;;;5.57;3.15;;;;;;;-2.64;90.27;95420.56;5093181;28;20075;-82
2024/01/20 07:17:31;;;;;;;6.95;2.88;;;;;;;-1.80;90.90;95559.19;5073785;28;20062;-82
2024/01/20 07:19:56;;;;;;;7.53;3.33;;;;;;;-2.42;90.91;95429.13;5071870;28;20127;-83
2024/01/20 07:22:22;;;;;;;13.80;4.90;;;;;;;-1.63;90.98;95557.13;5090652;28;20066;-82
2024/01/20 07:24:47;;;;;;;11.38;3.67;;;;;;;-2.10;90.65;95511.75;5091885;28;20132;-83
2024/01/20 07:27:13;;;;;;;6.82;2.95;;;;;;;-2.22;89.84;95521.06;5073867;28;20036;-82
2024/01/20 07:29:38;;;;;;;8.30;2.92;;;;;;;-1.88;90.43;95569.72;5093008;28;20047;-83
2024/01/20 07:32:15;;;;;;;8.88;3.28;;;;;;;-1.93;90.53;95561.69;5065684;28;20052;-82
2024/01/20 07:34:40;;;;;;;6.20;3.20;;;;;;;-2.10;90.84;95563.75;5071829;28;20044;-82
2024/01/20 07:37:08;;;;;;;6.82;3.38;;;;;;;-1.95;91.17;95579.25;5074668;28;20051;-83
2024/01/20 07:39:34;;;;;;;9.70;3.83;;;;;;;-2.18;90.96;95563.84;5093278;28;20057;-83
2024/01/20 07:41:59;;;;;;;5.65;3.08;;;;;;;-2.45;91.51;95510.03;5072884;28;20033;-83
2024/01/20 07:44:25;;;;;;;12.48;4.25;;;;;;;-1.85;91.50;95591.97;5076175;28;20043;-81
2024/01/20 07:46:50;;;;;;;11.98;3.83;;;;;;;-2.25;90.33;95525.81;5099237;28;20039;-81
2024/01/20 07:49:16;;;;;;;7.68;3.92;;;;;;;-1.91;91.25;95562.31;5099136;28;20115;-81
2024/01/20 07:51:41;;;;;;;8.73;3.78;;;;;;;-2.75;90.22;95455.59;5100042;28;20093;-81
2024/01/20 07:54:07;;;;;;;8.60;3.53;;;;;;;-1.86;90.32;95601.56;5098390;28;20242;-81
2024/01/20 07:56:32;;;;;;;5.88;3.55;;;;;;;-2.09;90.31;95588.75;5097881;28;20048;-81
2024/01/20 07:58:58;;;;;;;5.72;3.50;;;;;;;-2.39;90.54;95532.69;5075546;28;20036;-81
2024/01/20 08:01:23;;;;;;;10.57;4.03;;;;;;;-2.02;91.23;95587.00;5075930;28;20144;-81
2024/01/20 08:03:49;;;;;;;11.48;3.78;;;;;;;-2.84;90.43;95454.13;5086334;28;20078;-80
2024/01/20 08:06:14;;;;;;;18.50;4.93;;;;;;;-2.65;90.83;95504.63;5081421;28;20046;-80
2024/01/20 08:08:40;;;;;;;16.35;4.38;;;;;;;-2.05;90.89;95596.94;5099369;28;20110;-80
2024/01/20 08:11:06;;;;;;;10.55;4.78;;;;;;;-2.70;89.69;95503.59;5089564;28;20113;-80
2024/01/20 08:13:31;;;;;;;10.73;5.80;;;;;;;-2.49;90.27;95525.19;5107363;28;20056;-80
2024/01/20 08:15:57;;;;;;;14.65;5.05;;;;;;;-2.02;90.16;95599.19;5109842;28;20040;-80
2024/01/20 08:18:22;;;;;;;10.95;4.03;;;;;;;-2.63;89.65;95494.06;5111545;28;20073;-80
2024/01/20 08:20:48;;;;;;;8.95;4.72;;;;;;;-2.11;89.57;95556.13;5094272;28;20139;-81
2024/01/20 08:23:13;;;;;;;10.43;4.95;;;;;;;-1.98;89.83;95611.63;5095027;28;20085;-80
2024/01/20 08:25:39;;;;;;;8.32;4.50;;;;;;;-2.16;89.58;95569.69;5096362;28;20051;-80
2024/01/20 08:28:05;;;;;;;11.57;5.35;;;;;;;-3.04;88.15;95486.00;5076671;28;20047;-81
2024/01/20 08:30:30;;;;;;;14.90;5.13;;;;;;;-2.04;88.94;95634.94;5076598;28;20040;-81
2024/01/20 08:32:56;;;;;;;10.95;4.75;;;;;;;-2.28;89.79;95591.91;5072945;28;20098;-81
2024/01/20 08:35:21;;;;;;;15.10;5.57;;;;;;;-2.91;87.88;95525.13;5098544;28;20040;-81
2024/01/20 08:37:47;;;;;;;21.35;5.47;;;;;;;-2.24;89.79;95619.16;5095645;28;20048;-81
2024/01/20 08:40:12;;;;;;;11.63;5.03;;;;;;;-2.15;89.47;95625.06;5079220;28;20051;-81
2024/01/20 08:42:38;;;;;;;8.48;4.75;;;;;;;-2.80;88.22;95548.00;5081533;28;20036;-81
2024/01/20 08:45:04;;;;;;;13.02;5.45;;;;;;;-2.58;89.82;95578.22;5100150;28;20064;-80
2024/01/20 08:47:29;;;;;;;11.20;5.32;;;;;;;-2.31;89.38;95607.91;5107450;28;20492;-81
2024/01/20 08:49:55;;;;;;;11.27;5.82;;;;;;;-1.84;90.22;95654.16;5081866;28;20110;-83
2024/01/20 08:52:21;;;;;;;13.15;5.90;;;;;;;-1.98;88.67;95650.59;5076251;28;20154;-81
2024/01/20 08:54:46;;;;;;;14.27;7.13;;;;;;;-2.58;88.86;95575.59;5067421;28;20476;-80
2024/01/20 08:57:12;;;;;;;10.38;5.38;;;;;;;-2.00;88.08;95698.59;5077290;28;20032;-80
2024/01/20 08:59:38;;;;;;;16.65;5.60;;;;;;;-1.88;89.08;95681.50;5076662;28;20107;-81
2024/01/20 09:02:05;;;;;;;15.00;7.05;;;;;;;-2.45;89.58;95590.56;5075692;28;20044;-81
2024/01/20 09:04:30;;;;;;;13.45;6.57;;;;;;;-1.87;89.32;95675.31;5096373;28;20142;-81
2024/01/20 09:06:56;;;;;;;14.98;6.40;;;;;;;-1.81;88.77;95695.38;5077785;28;20214;-80
2024/01/20 09:09:21;;;;;;;18.98;7.43;;;;;;;-2.79;87.65;95550.41;5076788;28;20464;-80
2024/01/20 09:11:47;;;;;;;22.52;7.60;;;;;;;-2.34;87.33;95623.84;5073540;28;20066;-80
2024/01/20 09:14:12;;;;;;;16.85;8.13;;;;;;;-2.25;87.93;95642.72;5101067;28;20524;-80
2024/01/20 09:16:38;;;;;;;16.20;7.53;;;;;;;-2.08;87.16;95663.13;5079299;28;20083;-80
2024/01/20 09:19:03;;;;;;;15.85;8.02;;;;;;;-2.39;87.13;95608.00;5101198;28;20048;-79
2024/01/20 09:21:29;;;;;;;15.18;8.60;;;;;;;-1.85;88.35;95669.94;5078880;28;20147;-80
2024/01/20 09:23:54;;;;;;;21.40;7.75;;;;;;;-2.17;87.27;95620.03;5097576;28;20044;-80
2024/01/20 09:26:20;;;;;;;16.25;8.23;;;;;;;-1.85;86.94;95685.56;5101756;28;20105;-80
2024/01/20 09:28:46;;;;;;;22.85;8.75;;;;;;;-1.64;87.12;95699.38;5079451;28;20055;-80
2024/01/20 09:31:11;;;;;;;16.00;7.65;;;;;;;-2.19;85.19;95640.19;5095945;28;20450;-79
2024/01/20 09:33:37;;;;;;;14.60;7.82;;;;;;;-2.29;85.47;95621.50;5079425;28;20051;-82
2024/01/20 09:36:03;;;;;;;16.77;8.20;;;;;;;-2.13;85.55;95659.44;5091177;28;20043;-82
2024/01/20 09:38:29;;;;;;;19.60;9.77;;;;;;;-1.93;86.46;95668.28;5072534;28;20480;-83
2024/01/20 09:40:58;;;;;;;16.90;8.93;;;;;;;-1.87;86.32;95698.72;5090801;28;20036;-82
2024/01/20 09:43:25;;;;;;;22.17;9.40;;;;;;;-2.18;86.19;95623.63;5094420;28;20521;-82
2024/01/20 09:45:52;;;;;;;25.48;10.55;;;;;;;-2.07;85.90;95637.94;5075737;28;20070;-83
2024/01/20 09:48:18;;;;;;;24.27;10.23;;;;;;;-2.04;85.94;95634.94;5075792;28;20036;-82
2024/01/20 09:50:44;;;;;;;24.50;10.23;;;;;;;-1.70;86.48;95684.50;5075460;28;20552;-82
2024/01/20 09:53:17;;;;;;;29.33;10.27;;;;;;;-1.73;84.74;95713.47;5093914;28;20047;-82
2024/01/20 09:55:44;;;;;;;21.00;10.57;;;;;;;-2.39;86.21;95592.41;5069887;28;20076;-80
2024/01/20 09:58:15;;;;;;;23.15;10.25;;;;;;;-1.71;85.51;95679.50;5101094;28;20092;-79
2024/01/20 10:00:41;;;;;;;20.70;10.25;;;;;;;-1.55;85.45;95710.47;5102649;28;20501;-79
2024/01/20 10:03:09;;;;;;;23.48;11.18;;;;;;;-1.65;85.58;95679.56;5083629;28;20051;-79
2024/01/20 10:05:35;;;;;;;27.25;11.05;;;;;;;-1.95;85.77;95636.44;5078640;28;20044;-83
2024/01/20 10:08:02;;;;;;;26.08;12.82;;;;;;;-1.88;85.16;95667.72;5096940;28;20059;-83
2024/01/20 10:10:30;;;;;;;26.27;11.73;;;;;;;-1.70;85.17;95699.31;5073956;28;20123;-84
2024/01/20 10:12:55;;;;;;;25.90;12.13;;;;;;;-2.06;85.39;95610.97;5096618;28;20048;-84
2024/01/20 10:15:26;;;;;;;32.03;11.88;;;;;;;-2.13;85.51;95608.28;5075598;28;20139;-84
2024/01/20 10:17:52;;;;;;;23.67;11.10;;;;;;;-1.79;85.54;95669.22;5074075;28;20518;-84
2024/01/20 10:20:24;;;;;;;33.78;12.48;;;;;;;-1.68;86.14;95695.50;5075219;28;20046;-84
2024/01/20 10:22:50;;;;;;;24.67;11.52;;;;;;;-1.61;86.17;95699.00;5094320;28;20028;-85
2024/01/20 10:25:19;;;;;;;21.13;10.30;;;;;;;-2.66;85.91;95564.53;5076218;28;20043;-85
2024/01/20 10:27:47;;;;;;;29.02;11.70;;;;;;;-1.84;85.73;95689.75;5076704;28;20052;-85
2024/01/20 10:30:15;;;;;;;33.65;11.85;;;;;;;-1.62;86.44;95699.19;5076433;28;20499;-84
2024/01/20 10:32:41;;;;;;;30.75;11.95;;;;;;;-1.64;85.96;95664.75;5107899;28;20036;-84
2024/01/20 10:35:08;;;;;;;26.35;12.40;;;;;;;-1.82;85.88;95627.97;5093882;28;20044;-84
2024/01/20 10:37:37;;;;;;;23.42;11.18;;;;;;;-2.10;84.62;95635.69;5075912;28;20427;-84
2024/01/20 10:40:05;;;;;;;28.88;12.32;;;;;;;-2.16;85.99;95639.03;5075998;28;20044;-84
2024/01/20 10:42:32;;;;;;;27.75;11.77;;;;;;;-2.67;85.58;95542.16;5073738;28;20064;-84
2024/01/20 10:45:06;;;;;;;23.30;12.45;;;;;;;-1.60;85.51;95699.78;5094862;28;20066;-84
2024/01/20 10:47:40;;;;;;;24.42;11.88;;;;;;;-1.64;85.75;95699.38;5094214;28;20044;-84
2024/01/20 10:50:07;;;;;;;28.92;12.25;;;;;;;-1.58;86.27;95701.22;5075717;28;20054;-84
2024/01/20 10:52:37;;;;;;;28.58;12.57;;;;;;;-1.56;86.05;95704.47;5062970;28;20466;-84
2024/01/20 10:55:05;;;;;;;23.08;11.80;;;;;;;-1.67;86.46;95699.72;5069648;28;20072;-84
2024/01/20 10:57:31;;;;;;;30.40;12.70;;;;;;;-1.71;86.77;95711.50;5061038;28;20143;-84
2024/01/20 10:59:59;;;;;;;27.83;12.70;;;;;;;-1.67;87.30;95698.91;5073913;28;20062;-84
2024/01/20 11:02:26;;;;;;;27.75;12.27;;;;;;;-2.24;85.99;95603.56;5105664;28;20036;-85
2024/01/20 11:04:52;;;;;;;25.40;13.20;;;;;;;-1.72;86.94;95688.28;5073414;28;20040;-85
2024/01/20 11:07:26;;;;;;;31.42;12.00;;;;;;;-1.76;87.73;95664.47;5074502;28;20037;-83
2024/01/20 11:09:59;;;;;;;31.45;13.18;;;;;;;-2.90;86.35;95498.97;5076440;28;20487;-86
2024/01/20 11:12:29;;;;;;;31.55;13.20;;;;;;;-1.61;86.79;95688.59;5074659;28;20368;-87
2024/01/20 11:14:57;;;;;;;29.27;12.90;;;;;;;-2.06;87.67;95595.38;5084384;28;20052;-85
2024/01/20 11:17:23;;;;;;;30.95;12.98;;;;;;;-1.63;87.21;95684.56;5092510;28;20070;-85
2024/01/20 11:19:53;;;;;;;24.27;11.55;;;;;;;-2.23;87.30;95575.81;5112642;28;20043;-85
2024/01/20 11:22:39;;;;;;;24.33;12.55;;;;;;;-1.41;87.71;95683.56;5095110;28;20036;-86
2024/01/20 11:25:06;;;;;;;28.92;13.35;;;;;;;-1.50;87.33;95674.28;5095854;28;20082;-86
2024/01/20 11:27:58;;;;;;;26.13;12.50;;;;;;;-2.40;85.89;95546.66;5093215;28;20055;-86